sensor_id;sensor_type;location;lat;lon;timestamp;P1;durP1;ratioP1;P2;durP2;ratioP2
50739;SDS011;36704;52.524;17.580;2023-02-21T00:00:11;4.85;;;2.90;;
50739;SDS011;36704;52.524;17.580;2023-02-21T00:03:22;3.60;;;2.53;;
50739;SDS011;36704;52.524;17.580;2023-02-21T00:06:30;3.08;;;2.28;;
50739;SDS011;36704;52.524;17.580;2023-02-21T00:09:34;2.63;;;2.20;;
50739;SDS011;36704;52.524;17.580;2023-02-21T00:12:43;2.38;;;1.80;;
50739;SDS011;36704;52.524;17.580;2023-02-21T00:15:48;3.15;;;2.42;;
50739;SDS011;36704;52.524;17.580;2023-02-21T00:18:53;3.38;;;2.40;;
50739;SDS011;36704;52.524;17.580;2023-02-21T00:21:58;4.00;;;2.15;;
50739;SDS011;36704;52.524;17.580;2023-02-21T00:25:03;2.30;;;2.00;;
50739;SDS011;36704;52.524;17.580;2023-02-21T00:28:09;2.67;;;2.10;;
50739;SDS011;36704;52.524;17.580;2023-02-21T00:31:16;2.50;;;2.15;;
50739;SDS011;36704;52.524;17.580;2023-02-21T00:34:24;2.80;;;2.35;;
50739;SDS011;36704;52.524;17.580;2023-02-21T00:37:29;3.35;;;2.25;;
50739;SDS011;36704;52.524;17.580;2023-02-21T00:40:35;2.75;;;2.28;;
50739;SDS011;36704;52.524;17.580;2023-02-21T00:43:40;2.30;;;1.55;;
50739;SDS011;36704;52.524;17.580;2023-02-21T00:46:44;2.30;;;1.88;;
50739;SDS011;36704;52.524;17.580;2023-02-21T00:49:51;2.78;;;1.88;;
50739;SDS011;36704;52.524;17.580;2023-02-21T00:52:57;2.20;;;1.73;;
50739;SDS011;36704;52.524;17.580;2023-02-21T00:56:02;2.47;;;1.77;;
50739;SDS011;36704;52.524;17.580;2023-02-21T00:59:08;1.67;;;1.58;;
50739;SDS011;36704;52.524;17.580;2023-02-21T01:02:13;3.33;;;1.83;;
50739;SDS011;36704;52.524;17.580;2023-02-21T01:05:18;2.38;;;1.80;;
50739;SDS011;36704;52.524;17.580;2023-02-21T01:08:24;2.38;;;1.20;;
50739;SDS011;36704;52.524;17.580;2023-02-21T01:11:30;1.60;;;1.50;;
50739;SDS011;36704;52.524;17.580;2023-02-21T01:14:37;1.58;;;1.20;;
50739;SDS011;36704;52.524;17.580;2023-02-21T01:17:43;1.10;;;1.00;;
50739;SDS011;36704;52.524;17.580;2023-02-21T01:20:50;1.10;;;1.00;;
50739;SDS011;36704;52.524;17.580;2023-02-21T01:23:55;1.83;;;1.23;;
50739;SDS011;36704;52.524;17.580;2023-02-21T01:27:00;1.25;;;1.15;;
50739;SDS011;36704;52.524;17.580;2023-02-21T01:30:07;1.50;;;1.40;;
50739;SDS011;36704;52.524;17.580;2023-02-21T01:33:16;1.90;;;1.48;;
50739;SDS011;36704;52.524;17.580;2023-02-21T01:36:20;1.85;;;1.40;;
50739;SDS011;36704;52.524;17.580;2023-02-21T01:39:26;1.63;;;1.52;;
50739;SDS011;36704;52.524;17.580;2023-02-21T01:42:33;1.52;;;1.10;;
50739;SDS011;36704;52.524;17.580;2023-02-21T01:45:42;1.10;;;1.00;;
50739;SDS011;36704;52.524;17.580;2023-02-21T01:48:49;1.00;;;1.00;;
50739;SDS011;36704;52.524;17.580;2023-02-21T01:51:56;1.25;;;0.98;;
50739;SDS011;36704;52.524;17.580;2023-02-21T01:55:02;0.85;;;0.80;;
50739;SDS011;36704;52.524;17.580;2023-02-21T01:58:09;0.80;;;0.80;;
50739;SDS011;36704;52.524;17.580;2023-02-21T02:01:28;1.35;;;0.90;;
50739;SDS011;36704;52.524;17.580;2023-02-21T02:04:38;0.93;;;0.90;;
50739;SDS011;36704;52.524;17.580;2023-02-21T02:07:44;1.67;;;0.80;;
50739;SDS011;36704;52.524;17.580;2023-02-21T02:10:52;0.73;;;0.70;;
50739;SDS011;36704;52.524;17.580;2023-02-21T02:26:59;0.50;;;0.50;;
50739;SDS011;36704;52.524;17.580;2023-02-21T02:41:56;0.60;;;0.57;;
50739;SDS011;36704;52.524;17.580;2023-02-21T02:44:56;0.50;;;0.50;;
50739;SDS011;36704;52.524;17.580;2023-02-21T02:50:35;0.50;;;0.50;;
50739;SDS011;36704;52.524;17.580;2023-02-21T02:53:27;1.65;;;0.65;;
50739;SDS011;36704;52.524;17.580;2023-02-21T02:56:17;0.50;;;0.50;;
50739;SDS011;36704;52.524;17.580;2023-02-21T02:59:07;1.38;;;0.57;;
50739;SDS011;36704;52.524;17.580;2023-02-21T03:02:04;0.60;;;0.60;;
50739;SDS011;36704;52.524;17.580;2023-02-21T03:05:22;0.60;;;0.60;;
50739;SDS011;36704;52.524;17.580;2023-02-21T03:08:25;0.50;;;0.50;;
50739;SDS011;36704;52.524;17.580;2023-02-21T03:11:33;0.73;;;0.65;;
50739;SDS011;36704;52.524;17.580;2023-02-21T03:14:25;0.80;;;0.52;;
50739;SDS011;36704;52.524;17.580;2023-02-21T03:17:15;0.60;;;0.60;;
50739;SDS011;36704;52.524;17.580;2023-02-21T03:20:05;1.05;;;0.52;;
50739;SDS011;36704;52.524;17.580;2023-02-21T03:22:57;1.45;;;1.35;;
50739;SDS011;36704;52.524;17.580;2023-02-21T03:25:47;0.60;;;0.60;;
50739;SDS011;36704;52.524;17.580;2023-02-21T03:28:35;0.75;;;0.50;;
50739;SDS011;36704;52.524;17.580;2023-02-21T03:31:26;1.05;;;0.70;;
50739;SDS011;36704;52.524;17.580;2023-02-21T03:37:05;0.85;;;0.60;;
50739;SDS011;36704;52.524;17.580;2023-02-21T03:39:55;1.98;;;0.60;;
50739;SDS011;36704;52.524;17.580;2023-02-21T03:42:42;0.57;;;0.57;;
50739;SDS011;36704;52.524;17.580;2023-02-21T03:45:29;0.45;;;0.45;;
50739;SDS011;36704;52.524;17.580;2023-02-21T03:48:31;1.42;;;0.55;;
50739;SDS011;36704;52.524;17.580;2023-02-21T03:51:26;0.60;;;0.60;;
50739;SDS011;36704;52.524;17.580;2023-02-21T03:54:12;1.55;;;0.80;;
50739;SDS011;36704;52.524;17.580;2023-02-21T03:57:03;1.65;;;0.60;;
50739;SDS011;36704;52.524;17.580;2023-02-21T03:59:57;2.78;;;0.80;;
50739;SDS011;36704;52.524;17.580;2023-02-21T04:02:45;1.30;;;0.80;;
50739;SDS011;36704;52.524;17.580;2023-02-21T04:05:41;4.13;;;0.80;;
50739;SDS011;36704;52.524;17.580;2023-02-21T04:08:29;1.48;;;0.80;;
50739;SDS011;36704;52.524;17.580;2023-02-21T04:11:17;3.72;;;1.20;;
50739;SDS011;36704;52.524;17.580;2023-02-21T04:14:05;2.67;;;0.85;;
50739;SDS011;36704;52.524;17.580;2023-02-21T04:16:51;6.82;;;1.00;;
50739;SDS011;36704;52.524;17.580;2023-02-21T04:19:42;4.78;;;1.02;;
50739;SDS011;36704;52.524;17.580;2023-02-21T04:22:33;3.83;;;1.75;;
50739;SDS011;36704;52.524;17.580;2023-02-21T04:25:22;7.45;;;1.25;;
50739;SDS011;36704;52.524;17.580;2023-02-21T04:28:15;5.78;;;1.08;;
50739;SDS011;36704;52.524;17.580;2023-02-21T04:31:02;3.47;;;0.90;;
50739;SDS011;36704;52.524;17.580;2023-02-21T04:33:49;3.45;;;1.10;;
50739;SDS011;36704;52.524;17.580;2023-02-21T04:36:47;7.15;;;1.00;;
50739;SDS011;36704;52.524;17.580;2023-02-21T04:39:34;6.40;;;1.10;;
50739;SDS011;36704;52.524;17.580;2023-02-21T04:42:20;6.82;;;1.10;;
50739;SDS011;36704;52.524;17.580;2023-02-21T04:45:07;6.25;;;1.17;;
50739;SDS011;36704;52.524;17.580;2023-02-21T04:47:54;3.42;;;1.30;;
50739;SDS011;36704;52.524;17.580;2023-02-21T04:50:41;6.30;;;1.15;;
50739;SDS011;36704;52.524;17.580;2023-02-21T04:53:27;5.65;;;3.58;;
50739;SDS011;36704;52.524;17.580;2023-02-21T04:56:16;6.97;;;1.38;;
50739;SDS011;36704;52.524;17.580;2023-02-21T04:59:04;3.95;;;1.52;;
50739;SDS011;36704;52.524;17.580;2023-02-21T05:01:53;5.45;;;1.60;;
50739;SDS011;36704;52.524;17.580;2023-02-21T05:04:45;6.90;;;2.15;;
50739;SDS011;36704;52.524;17.580;2023-02-21T05:07:31;5.50;;;1.80;;
50739;SDS011;36704;52.524;17.580;2023-02-21T05:10:18;6.15;;;1.55;;
50739;SDS011;36704;52.524;17.580;2023-02-21T05:13:05;7.95;;;1.92;;
50739;SDS011;36704;52.524;17.580;2023-02-21T05:15:51;8.32;;;2.00;;
50739;SDS011;36704;52.524;17.580;2023-02-21T05:18:40;6.50;;;1.55;;
50739;SDS011;36704;52.524;17.580;2023-02-21T05:21:27;5.05;;;1.98;;
50739;SDS011;36704;52.524;17.580;2023-02-21T05:24:14;6.25;;;1.42;;
50739;SDS011;36704;52.524;17.580;2023-02-21T05:27:00;3.30;;;1.20;;
50739;SDS011;36704;52.524;17.580;2023-02-21T05:29:47;7.47;;;2.65;;
50739;SDS011;36704;52.524;17.580;2023-02-21T05:32:35;5.95;;;2.55;;
50739;SDS011;36704;52.524;17.580;2023-02-21T05:35:21;7.28;;;2.42;;
50739;SDS011;36704;52.524;17.580;2023-02-21T05:38:08;6.88;;;2.58;;
50739;SDS011;36704;52.524;17.580;2023-02-21T05:40:55;11.18;;;3.30;;
50739;SDS011;36704;52.524;17.580;2023-02-21T05:43:43;5.93;;;1.52;;
50739;SDS011;36704;52.524;17.580;2023-02-21T05:46:31;6.72;;;2.35;;
50739;SDS011;36704;52.524;17.580;2023-02-21T05:49:19;4.50;;;1.40;;
50739;SDS011;36704;52.524;17.580;2023-02-21T05:52:07;6.25;;;2.05;;
50739;SDS011;36704;52.524;17.580;2023-02-21T05:54:57;6.90;;;2.17;;
50739;SDS011;36704;52.524;17.580;2023-02-21T05:57:45;9.75;;;2.33;;
50739;SDS011;36704;52.524;17.580;2023-02-21T06:00:34;9.05;;;2.15;;
50739;SDS011;36704;52.524;17.580;2023-02-21T06:03:21;7.22;;;2.05;;
50739;SDS011;36704;52.524;17.580;2023-02-21T06:06:07;13.93;;;2.90;;
50739;SDS011;36704;52.524;17.580;2023-02-21T06:08:54;10.23;;;1.90;;
50739;SDS011;36704;52.524;17.580;2023-02-21T06:11:41;7.25;;;1.88;;
50739;SDS011;36704;52.524;17.580;2023-02-21T06:14:28;6.32;;;1.92;;
50739;SDS011;36704;52.524;17.580;2023-02-21T06:17:15;6.25;;;1.95;;
50739;SDS011;36704;52.524;17.580;2023-02-21T06:20:06;6.15;;;1.60;;
50739;SDS011;36704;52.524;17.580;2023-02-21T06:22:54;6.32;;;1.50;;
50739;SDS011;36704;52.524;17.580;2023-02-21T06:25:40;8.88;;;1.70;;
50739;SDS011;36704;52.524;17.580;2023-02-21T06:28:30;11.02;;;2.05;;
50739;SDS011;36704;52.524;17.580;2023-02-21T06:31:17;11.35;;;2.38;;
50739;SDS011;36704;52.524;17.580;2023-02-21T06:34:05;10.20;;;3.30;;
50739;SDS011;36704;52.524;17.580;2023-02-21T06:36:52;12.82;;;3.28;;
50739;SDS011;36704;52.524;17.580;2023-02-21T06:39:39;9.70;;;3.92;;
50739;SDS011;36704;52.524;17.580;2023-02-21T06:42:26;16.73;;;5.38;;
50739;SDS011;36704;52.524;17.580;2023-02-21T06:45:13;11.77;;;4.03;;
50739;SDS011;36704;52.524;17.580;2023-02-21T06:47:59;8.50;;;3.35;;
50739;SDS011;36704;52.524;17.580;2023-02-21T06:50:46;11.18;;;3.97;;
50739;SDS011;36704;52.524;17.580;2023-02-21T06:53:32;10.40;;;3.50;;
50739;SDS011;36704;52.524;17.580;2023-02-21T06:56:19;10.93;;;2.75;;
50739;SDS011;36704;52.524;17.580;2023-02-21T06:59:07;12.82;;;3.80;;
50739;SDS011;36704;52.524;17.580;2023-02-21T07:01:54;10.98;;;3.70;;
50739;SDS011;36704;52.524;17.580;2023-02-21T07:04:41;10.95;;;3.45;;
50739;SDS011;36704;52.524;17.580;2023-02-21T07:07:31;16.38;;;4.30;;
50739;SDS011;36704;52.524;17.580;2023-02-21T07:10:17;15.90;;;3.35;;
50739;SDS011;36704;52.524;17.580;2023-02-21T07:13:07;10.65;;;3.15;;
50739;SDS011;36704;52.524;17.580;2023-02-21T07:15:54;16.60;;;3.15;;
50739;SDS011;36704;52.524;17.580;2023-02-21T07:18:43;10.15;;;3.80;;
50739;SDS011;36704;52.524;17.580;2023-02-21T07:21:30;9.50;;;2.20;;
50739;SDS011;36704;52.524;17.580;2023-02-21T07:24:17;7.75;;;3.40;;
50739;SDS011;36704;52.524;17.580;2023-02-21T07:27:03;9.48;;;2.35;;
50739;SDS011;36704;52.524;17.580;2023-02-21T07:29:50;14.20;;;2.92;;
50739;SDS011;36704;52.524;17.580;2023-02-21T07:32:36;16.08;;;2.78;;
50739;SDS011;36704;52.524;17.580;2023-02-21T07:35:23;10.00;;;3.10;;
50739;SDS011;36704;52.524;17.580;2023-02-21T07:38:09;11.20;;;3.17;;
50739;SDS011;36704;52.524;17.580;2023-02-21T07:40:56;17.50;;;3.53;;
50739;SDS011;36704;52.524;17.580;2023-02-21T07:43:43;14.23;;;2.90;;
50739;SDS011;36704;52.524;17.580;2023-02-21T07:46:34;8.05;;;2.85;;
50739;SDS011;36704;52.524;17.580;2023-02-21T07:49:21;15.73;;;4.13;;
50739;SDS011;36704;52.524;17.580;2023-02-21T07:52:08;10.02;;;3.50;;
50739;SDS011;36704;52.524;17.580;2023-02-21T07:54:54;12.48;;;3.78;;
50739;SDS011;36704;52.524;17.580;2023-02-21T07:57:41;17.50;;;5.25;;
50739;SDS011;36704;52.524;17.580;2023-02-21T08:00:27;13.68;;;4.10;;
50739;SDS011;36704;52.524;17.580;2023-02-21T08:03:14;17.27;;;3.92;;
50739;SDS011;36704;52.524;17.580;2023-02-21T08:06:00;17.60;;;4.85;;
50739;SDS011;36704;52.524;17.580;2023-02-21T08:08:47;17.73;;;4.00;;
50739;SDS011;36704;52.524;17.580;2023-02-21T08:11:33;18.90;;;3.97;;
50739;SDS011;36704;52.524;17.580;2023-02-21T08:14:22;17.92;;;3.65;;
50739;SDS011;36704;52.524;17.580;2023-02-21T08:17:08;10.60;;;3.55;;
50739;SDS011;36704;52.524;17.580;2023-02-21T08:19:55;11.52;;;3.10;;
50739;SDS011;36704;52.524;17.580;2023-02-21T08:22:41;12.10;;;3.17;;
50739;SDS011;36704;52.524;17.580;2023-02-21T08:25:28;16.63;;;3.35;;
50739;SDS011;36704;52.524;17.580;2023-02-21T08:28:15;16.95;;;3.83;;
50739;SDS011;36704;52.524;17.580;2023-02-21T08:31:02;16.88;;;4.40;;
50739;SDS011;36704;52.524;17.580;2023-02-21T08:33:49;13.05;;;4.40;;
50739;SDS011;36704;52.524;17.580;2023-02-21T08:36:36;20.88;;;3.58;;
50739;SDS011;36704;52.524;17.580;2023-02-21T08:39:24;14.80;;;4.25;;
50739;SDS011;36704;52.524;17.580;2023-02-21T08:42:15;20.42;;;3.60;;
50739;SDS011;36704;52.524;17.580;2023-02-21T08:45:01;12.93;;;3.50;;
50739;SDS011;36704;52.524;17.580;2023-02-21T08:47:48;15.65;;;6.60;;
50739;SDS011;36704;52.524;17.580;2023-02-21T08:50:36;15.43;;;3.38;;
50739;SDS011;36704;52.524;17.580;2023-02-21T08:53:22;17.10;;;4.00;;
50739;SDS011;36704;52.524;17.580;2023-02-21T08:56:08;13.43;;;3.53;;
50739;SDS011;36704;52.524;17.580;2023-02-21T08:58:56;13.52;;;3.00;;
50739;SDS011;36704;52.524;17.580;2023-02-21T09:01:42;19.17;;;3.25;;
50739;SDS011;36704;52.524;17.580;2023-02-21T09:04:28;11.85;;;3.50;;
50739;SDS011;36704;52.524;17.580;2023-02-21T09:07:15;13.50;;;3.10;;
50739;SDS011;36704;52.524;17.580;2023-02-21T09:10:04;14.45;;;3.08;;
50739;SDS011;36704;52.524;17.580;2023-02-21T09:12:51;9.30;;;2.63;;
50739;SDS011;36704;52.524;17.580;2023-02-21T09:15:37;16.60;;;4.18;;
50739;SDS011;36704;52.524;17.580;2023-02-21T09:18:24;18.60;;;3.28;;
50739;SDS011;36704;52.524;17.580;2023-02-21T09:21:12;15.43;;;3.38;;
50739;SDS011;36704;52.524;17.580;2023-02-21T09:23:58;10.10;;;2.75;;
50739;SDS011;36704;52.524;17.580;2023-02-21T09:26:45;15.43;;;3.15;;
50739;SDS011;36704;52.524;17.580;2023-02-21T09:29:32;13.48;;;3.00;;
50739;SDS011;36704;52.524;17.580;2023-02-21T09:32:32;13.73;;;2.65;;
50739;SDS011;36704;52.524;17.580;2023-02-21T09:35:18;14.73;;;3.08;;
50739;SDS011;36704;52.524;17.580;2023-02-21T09:38:06;13.18;;;3.17;;
50739;SDS011;36704;52.524;17.580;2023-02-21T09:40:55;13.45;;;3.22;;
50739;SDS011;36704;52.524;17.580;2023-02-21T09:43:48;12.45;;;2.70;;
50739;SDS011;36704;52.524;17.580;2023-02-21T09:46:40;14.88;;;2.70;;
50739;SDS011;36704;52.524;17.580;2023-02-21T09:49:32;16.08;;;3.20;;
50739;SDS011;36704;52.524;17.580;2023-02-21T09:52:28;17.23;;;2.80;;
50739;SDS011;36704;52.524;17.580;2023-02-21T09:55:28;8.30;;;2.13;;
50739;SDS011;36704;52.524;17.580;2023-02-21T09:58:17;15.60;;;2.75;;
50739;SDS011;36704;52.524;17.580;2023-02-21T10:01:07;17.92;;;3.40;;
50739;SDS011;36704;52.524;17.580;2023-02-21T10:04:20;33.30;;;16.70;;
50739;SDS011;36704;52.524;17.580;2023-02-21T10:07:16;17.75;;;3.38;;
50739;SDS011;36704;52.524;17.580;2023-02-21T10:10:15;13.02;;;3.20;;
50739;SDS011;36704;52.524;17.580;2023-02-21T10:13:51;12.85;;;2.70;;
50739;SDS011;36704;52.524;17.580;2023-02-21T10:20:21;18.48;;;3.58;;
50739;SDS011;36704;52.524;17.580;2023-02-21T10:23:47;20.77;;;3.88;;
50739;SDS011;36704;52.524;17.580;2023-02-21T10:27:12;16.20;;;4.47;;
50739;SDS011;36704;52.524;17.580;2023-02-21T10:30:31;20.50;;;4.28;;
50739;SDS011;36704;52.524;17.580;2023-02-21T10:33:51;16.87;;;4.03;;
50739;SDS011;36704;52.524;17.580;2023-02-21T10:36:53;22.92;;;4.22;;
50739;SDS011;36704;52.524;17.580;2023-02-21T10:39:57;21.30;;;3.60;;
50739;SDS011;36704;52.524;17.580;2023-02-21T10:42:48;15.02;;;3.92;;
50739;SDS011;36704;52.524;17.580;2023-02-21T10:45:38;14.93;;;3.42;;
50739;SDS011;36704;52.524;17.580;2023-02-21T10:48:33;16.40;;;4.30;;
50739;SDS011;36704;52.524;17.580;2023-02-21T10:51:29;15.68;;;3.20;;
50739;SDS011;36704;52.524;17.580;2023-02-21T10:54:23;15.30;;;3.20;;
50739;SDS011;36704;52.524;17.580;2023-02-21T10:57:10;17.02;;;4.38;;
50739;SDS011;36704;52.524;17.580;2023-02-21T11:00:02;17.42;;;4.10;;
50739;SDS011;36704;52.524;17.580;2023-02-21T11:02:55;13.73;;;3.10;;
50739;SDS011;36704;52.524;17.580;2023-02-21T11:05:55;16.45;;;3.60;;
50739;SDS011;36704;52.524;17.580;2023-02-21T11:08:43;16.08;;;4.00;;
50739;SDS011;36704;52.524;17.580;2023-02-21T11:11:36;13.00;;;4.03;;
50739;SDS011;36704;52.524;17.580;2023-02-21T11:14:24;16.45;;;3.97;;
50739;SDS011;36704;52.524;17.580;2023-02-21T11:17:13;12.80;;;3.15;;
50739;SDS011;36704;52.524;17.580;2023-02-21T11:23:00;14.93;;;3.28;;
50739;SDS011;36704;52.524;17.580;2023-02-21T11:25:55;12.93;;;3.33;;
50739;SDS011;36704;52.524;17.580;2023-02-21T11:29:07;17.60;;;4.07;;
50739;SDS011;36704;52.524;17.580;2023-02-21T11:31:55;16.40;;;4.03;;
50739;SDS011;36704;52.524;17.580;2023-02-21T11:34:42;16.77;;;3.90;;
50739;SDS011;36704;52.524;17.580;2023-02-21T11:37:33;13.88;;;4.07;;
50739;SDS011;36704;52.524;17.580;2023-02-21T11:43:19;35.25;;;8.93;;
50739;SDS011;36704;52.524;17.580;2023-02-21T11:46:17;21.35;;;5.75;;
50739;SDS011;36704;52.524;17.580;2023-02-21T11:52:01;20.02;;;4.78;;
50739;SDS011;36704;52.524;17.580;2023-02-21T11:54:55;18.50;;;5.63;;
50739;SDS011;36704;52.524;17.580;2023-02-21T11:57:54;23.30;;;6.35;;
50739;SDS011;36704;52.524;17.580;2023-02-21T12:00:49;13.23;;;4.72;;
50739;SDS011;36704;52.524;17.580;2023-02-21T12:10:22;13.07;;;4.47;;
50739;SDS011;36704;52.524;17.580;2023-02-21T12:13:29;25.30;;;5.63;;
50739;SDS011;36704;52.524;17.580;2023-02-21T12:29:17;28.08;;;6.72;;
50739;SDS011;36704;52.524;17.580;2023-02-21T12:48:09;22.05;;;4.53;;
50739;SDS011;36704;52.524;17.580;2023-02-21T12:51:13;21.02;;;4.53;;
50739;SDS011;36704;52.524;17.580;2023-02-21T12:54:04;21.48;;;4.88;;
50739;SDS011;36704;52.524;17.580;2023-02-21T12:56:55;18.17;;;4.88;;
50739;SDS011;36704;52.524;17.580;2023-02-21T12:59:47;13.65;;;3.30;;
50739;SDS011;36704;52.524;17.580;2023-02-21T13:02:52;17.85;;;3.88;;
50739;SDS011;36704;52.524;17.580;2023-02-21T13:05:43;13.07;;;2.88;;
50739;SDS011;36704;52.524;17.580;2023-02-21T13:08:39;17.23;;;3.80;;
50739;SDS011;36704;52.524;17.580;2023-02-21T13:14:53;15.23;;;3.38;;
50739;SDS011;36704;52.524;17.580;2023-02-21T13:17:42;20.42;;;3.65;;
50739;SDS011;36704;52.524;17.580;2023-02-21T13:20:35;21.23;;;4.18;;
50739;SDS011;36704;52.524;17.580;2023-02-21T13:29:59;15.45;;;4.13;;
50739;SDS011;36704;52.524;17.580;2023-02-21T13:32:54;21.42;;;6.07;;
50739;SDS011;36704;52.524;17.580;2023-02-21T13:35:42;14.27;;;3.90;;
50739;SDS011;36704;52.524;17.580;2023-02-21T13:38:31;10.82;;;3.00;;
50739;SDS011;36704;52.524;17.580;2023-02-21T13:41:18;14.68;;;3.35;;
50739;SDS011;36704;52.524;17.580;2023-02-21T13:44:14;17.92;;;4.00;;
50739;SDS011;36704;52.524;17.580;2023-02-21T13:47:11;14.60;;;4.20;;
50739;SDS011;36704;52.524;17.580;2023-02-21T13:50:39;20.98;;;4.00;;
50739;SDS011;36704;52.524;17.580;2023-02-21T13:53:25;11.95;;;3.38;;
50739;SDS011;36704;52.524;17.580;2023-02-21T13:56:18;17.00;;;3.08;;
50739;SDS011;36704;52.524;17.580;2023-02-21T14:02:20;12.25;;;3.28;;
50739;SDS011;36704;52.524;17.580;2023-02-21T14:05:19;20.55;;;4.75;;
50739;SDS011;36704;52.524;17.580;2023-02-21T14:08:06;29.40;;;8.07;;
50739;SDS011;36704;52.524;17.580;2023-02-21T14:10:54;18.45;;;4.85;;
50739;SDS011;36704;52.524;17.580;2023-02-21T14:17:11;16.02;;;3.97;;
50739;SDS011;36704;52.524;17.580;2023-02-21T14:19:58;19.83;;;3.90;;
50739;SDS011;36704;52.524;17.580;2023-02-21T14:22:48;15.05;;;3.95;;
50739;SDS011;36704;52.524;17.580;2023-02-21T14:25:35;21.38;;;3.65;;
50739;SDS011;36704;52.524;17.580;2023-02-21T14:31:49;18.85;;;4.93;;
50739;SDS011;36704;52.524;17.580;2023-02-21T14:34:51;17.60;;;4.13;;
50739;SDS011;36704;52.524;17.580;2023-02-21T14:37:53;15.88;;;3.80;;
50739;SDS011;36704;52.524;17.580;2023-02-21T14:50:28;22.77;;;4.57;;
50739;SDS011;36704;52.524;17.580;2023-02-21T15:03:17;19.35;;;4.57;;
50739;SDS011;36704;52.524;17.580;2023-02-21T15:06:08;15.45;;;4.30;;
50739;SDS011;36704;52.524;17.580;2023-02-21T15:08:58;25.23;;;5.43;;
50739;SDS011;36704;52.524;17.580;2023-02-21T15:11:57;25.67;;;5.90;;
50739;SDS011;36704;52.524;17.580;2023-02-21T15:14:54;12.60;;;3.20;;
50739;SDS011;36704;52.524;17.580;2023-02-21T15:17:42;19.35;;;4.53;;
50739;SDS011;36704;52.524;17.580;2023-02-21T15:20:36;23.50;;;5.78;;
50739;SDS011;36704;52.524;17.580;2023-02-21T15:23:27;18.02;;;4.03;;
50739;SDS011;36704;52.524;17.580;2023-02-21T15:26:20;20.92;;;4.97;;
50739;SDS011;36704;52.524;17.580;2023-02-21T15:29:31;21.50;;;5.03;;
50739;SDS011;36704;52.524;17.580;2023-02-21T15:32:21;20.67;;;5.40;;
50739;SDS011;36704;52.524;17.580;2023-02-21T15:35:21;25.42;;;5.68;;
50739;SDS011;36704;52.524;17.580;2023-02-21T15:38:28;24.50;;;4.90;;
50739;SDS011;36704;52.524;17.580;2023-02-21T15:41:28;28.73;;;5.90;;
50739;SDS011;36704;52.524;17.580;2023-02-21T15:44:30;24.13;;;6.15;;
50739;SDS011;36704;52.524;17.580;2023-02-21T15:47:25;21.58;;;5.43;;
50739;SDS011;36704;52.524;17.580;2023-02-21T15:50:25;27.65;;;6.00;;
50739;SDS011;36704;52.524;17.580;2023-02-21T15:53:23;33.22;;;7.43;;
50739;SDS011;36704;52.524;17.580;2023-02-21T15:56:22;21.00;;;5.38;;
50739;SDS011;36704;52.524;17.580;2023-02-21T15:59:18;26.42;;;6.15;;
50739;SDS011;36704;52.524;17.580;2023-02-21T16:04:56;19.52;;;5.28;;
50739;SDS011;36704;52.524;17.580;2023-02-21T16:07:43;25.15;;;5.40;;
50739;SDS011;36704;52.524;17.580;2023-02-21T16:10:36;18.25;;;5.15;;
50739;SDS011;36704;52.524;17.580;2023-02-21T16:13:33;21.90;;;4.60;;
50739;SDS011;36704;52.524;17.580;2023-02-21T16:16:23;14.88;;;3.80;;
50739;SDS011;36704;52.524;17.580;2023-02-21T16:19:09;23.05;;;4.32;;
50739;SDS011;36704;52.524;17.580;2023-02-21T16:22:10;17.75;;;4.80;;
50739;SDS011;36704;52.524;17.580;2023-02-21T16:27:56;17.27;;;4.47;;
50739;SDS011;36704;52.524;17.580;2023-02-21T16:30:47;15.25;;;4.03;;
50739;SDS011;36704;52.524;17.580;2023-02-21T16:33:35;18.45;;;4.25;;
50739;SDS011;36704;52.524;17.580;2023-02-21T16:36:25;15.77;;;3.60;;
50739;SDS011;36704;52.524;17.580;2023-02-21T16:39:16;17.85;;;3.45;;
50739;SDS011;36704;52.524;17.580;2023-02-21T16:42:03;18.95;;;4.25;;
50739;SDS011;36704;52.524;17.580;2023-02-21T16:44:49;19.38;;;4.30;;
50739;SDS011;36704;52.524;17.580;2023-02-21T16:47:36;16.35;;;3.97;;
50739;SDS011;36704;52.524;17.580;2023-02-21T16:50:34;16.58;;;4.05;;
50739;SDS011;36704;52.524;17.580;2023-02-21T16:53:22;17.48;;;3.88;;
50739;SDS011;36704;52.524;17.580;2023-02-21T16:56:11;19.02;;;3.58;;
50739;SDS011;36704;52.524;17.580;2023-02-21T16:58:58;25.63;;;4.53;;
50739;SDS011;36704;52.524;17.580;2023-02-21T17:01:47;22.92;;;5.75;;
50739;SDS011;36704;52.524;17.580;2023-02-21T17:04:35;13.88;;;3.80;;
50739;SDS011;36704;52.524;17.580;2023-02-21T17:07:25;17.00;;;4.07;;
50739;SDS011;36704;52.524;17.580;2023-02-21T17:10:11;21.55;;;4.60;;
50739;SDS011;36704;52.524;17.580;2023-02-21T17:12:58;19.98;;;4.30;;
50739;SDS011;36704;52.524;17.580;2023-02-21T17:15:46;20.83;;;4.97;;
50739;SDS011;36704;52.524;17.580;2023-02-21T17:18:33;15.27;;;4.72;;
50739;SDS011;36704;52.524;17.580;2023-02-21T17:21:20;15.27;;;4.93;;
50739;SDS011;36704;52.524;17.580;2023-02-21T17:24:08;15.85;;;3.75;;
50739;SDS011;36704;52.524;17.580;2023-02-21T17:26:55;20.10;;;4.35;;
50739;SDS011;36704;52.524;17.580;2023-02-21T17:29:45;21.10;;;3.65;;
50739;SDS011;36704;52.524;17.580;2023-02-21T17:32:32;18.95;;;4.60;;
50739;SDS011;36704;52.524;17.580;2023-02-21T17:35:21;23.00;;;4.50;;
50739;SDS011;36704;52.524;17.580;2023-02-21T17:38:09;30.08;;;8.02;;
50739;SDS011;36704;52.524;17.580;2023-02-21T17:40:56;16.65;;;4.13;;
50739;SDS011;36704;52.524;17.580;2023-02-21T17:43:43;19.15;;;4.30;;
50739;SDS011;36704;52.524;17.580;2023-02-21T17:46:33;22.30;;;5.03;;
50739;SDS011;36704;52.524;17.580;2023-02-21T17:49:23;24.98;;;9.23;;
50739;SDS011;36704;52.524;17.580;2023-02-21T17:52:11;20.38;;;6.60;;
50739;SDS011;36704;52.524;17.580;2023-02-21T17:55:00;20.70;;;5.63;;
50739;SDS011;36704;52.524;17.580;2023-02-21T17:57:53;24.80;;;6.40;;
50739;SDS011;36704;52.524;17.580;2023-02-21T18:00:39;29.13;;;6.25;;
50739;SDS011;36704;52.524;17.580;2023-02-21T18:03:28;21.52;;;5.32;;
50739;SDS011;36704;52.524;17.580;2023-02-21T18:06:17;22.25;;;3.90;;
50739;SDS011;36704;52.524;17.580;2023-02-21T18:09:03;20.00;;;4.47;;
50739;SDS011;36704;52.524;17.580;2023-02-21T18:11:56;25.55;;;6.85;;
50739;SDS011;36704;52.524;17.580;2023-02-21T18:14:44;14.25;;;4.38;;
50739;SDS011;36704;52.524;17.580;2023-02-21T18:17:30;20.27;;;5.30;;
50739;SDS011;36704;52.524;17.580;2023-02-21T18:20:17;23.85;;;5.75;;
50739;SDS011;36704;52.524;17.580;2023-02-21T18:23:06;22.08;;;5.82;;
50739;SDS011;36704;52.524;17.580;2023-02-21T18:25:53;23.25;;;6.20;;
50739;SDS011;36704;52.524;17.580;2023-02-21T18:28:42;27.15;;;6.05;;
50739;SDS011;36704;52.524;17.580;2023-02-21T18:31:28;25.52;;;7.43;;
50739;SDS011;36704;52.524;17.580;2023-02-21T18:34:15;22.77;;;5.18;;
50739;SDS011;36704;52.524;17.580;2023-02-21T18:37:04;20.45;;;6.55;;
50739;SDS011;36704;52.524;17.580;2023-02-21T18:39:54;21.73;;;4.93;;
50739;SDS011;36704;52.524;17.580;2023-02-21T18:42:44;29.95;;;5.90;;
50739;SDS011;36704;52.524;17.580;2023-02-21T18:45:31;22.15;;;5.05;;
50739;SDS011;36704;52.524;17.580;2023-02-21T18:48:20;20.95;;;5.40;;
50739;SDS011;36704;52.524;17.580;2023-02-21T18:51:10;21.70;;;5.25;;
50739;SDS011;36704;52.524;17.580;2023-02-21T18:53:58;22.10;;;6.15;;
50739;SDS011;36704;52.524;17.580;2023-02-21T18:56:50;27.60;;;7.03;;
50739;SDS011;36704;52.524;17.580;2023-02-21T18:59:37;25.60;;;7.57;;